Carroll, New Hampshire
Current Conditions -  °F | °C
As of 12:52 PM on Thursday 27 Nov 2014 (Local Time) from KHIE Reporting Station
Overcast Overcast  
Wind Chill: 20°   Ceiling: 2000
Heat Index: 27°   Visibility: 10mi
Dew Point: 20°   Wind: 6mph
Humidity: 75%   Direction: 10°N
Pressure: 29.94"   Gusts: NA
Location:  44.3374°N, 71.528°W
Report Text: KHIE 271752Z AUTO 01005KT 10SM OVC020 M03/M07 A2994 RMK AO2 SLP155 60000 T10281067 11022 21039 50010
Loading
Personal Weather Stations






























Interactive Weather Map New forecast layout! Learn more

10-Day Weather Forecast

Advertisements
Track Severe Weather on mobile